sensor_id;sensor_type;location;lat;lon;timestamp;pressure;altitude;pressure_sealevel;temperature;humidity
59073;BME280;44859;51.934;15.554;2023-02-13T00:00:57;101807.45;;;4.65;100.00
59073;BME280;44859;51.934;15.554;2023-02-13T00:03:53;101801.36;;;4.65;100.00
59073;BME280;44859;51.934;15.554;2023-02-13T00:06:30;101802.42;;;4.67;100.00
59073;BME280;44859;51.934;15.554;2023-02-13T00:09:07;101804.67;;;4.65;100.00
59073;BME280;44859;51.934;15.554;2023-02-13T00:11:41;101800.31;;;4.65;100.00
59073;BME280;44859;51.934;15.554;2023-02-13T00:14:13;101799.28;;;4.67;100.00
59073;BME280;44859;51.934;15.554;2023-02-13T00:16:56;101800.86;;;4.67;100.00
59073;BME280;44859;51.934;15.554;2023-02-13T00:19:28;101801.36;;;4.67;100.00
59073;BME280;44859;51.934;15.554;2023-02-13T00:22:00;101798.75;;;4.66;100.00
59073;BME280;44859;51.934;15.554;2023-02-13T00:24:28;101795.27;;;4.65;100.00
59073;BME280;44859;51.934;15.554;2023-02-13T00:27:00;101795.61;;;4.64;100.00
59073;BME280;44859;51.934;15.554;2023-02-13T00:29:36;101791.60;;;4.64;100.00
59073;BME280;44859;51.934;15.554;2023-02-13T00:32:14;101790.91;;;4.64;100.00
59073;BME280;44859;51.934;15.554;2023-02-13T00:34:46;101789.85;;;4.63;100.00
59073;BME280;44859;51.934;15.554;2023-02-13T00:37:20;101792.46;;;4.63;100.00
59073;BME280;44859;51.934;15.554;2023-02-13T00:39:53;101791.23;;;4.62;100.00
59073;BME280;44859;51.934;15.554;2023-02-13T00:42:25;101788.45;;;4.62;100.00
59073;BME280;44859;51.934;15.554;2023-02-13T00:45:00;101783.05;;;4.61;100.00
59073;BME280;44859;51.934;15.554;2023-02-13T00:47:30;101783.92;;;4.61;100.00
59073;BME280;44859;51.934;15.554;2023-02-13T00:50:01;101784.45;;;4.61;100.00
59073;BME280;44859;51.934;15.554;2023-02-13T00:52:32;101784.95;;;4.60;100.00
59073;BME280;44859;51.934;15.554;2023-02-13T00:55:11;101788.95;;;4.59;100.00
59073;BME280;44859;51.934;15.554;2023-02-13T00:57:54;101783.90;;;4.60;100.00
59073;BME280;44859;51.934;15.554;2023-02-13T01:00:30;101779.04;;;4.61;100.00
59073;BME280;44859;51.934;15.554;2023-02-13T01:03:17;101775.92;;;4.62;100.00
59073;BME280;44859;51.934;15.554;2023-02-13T01:05:56;101773.30;;;4.60;100.00
59073;BME280;44859;51.934;15.554;2023-02-13T01:08:59;101774.67;;;4.58;100.00
59073;BME280;44859;51.934;15.554;2023-02-13T01:11:38;101773.29;;;4.59;100.00
59073;BME280;44859;51.934;15.554;2023-02-13T01:14:07;101768.25;;;4.60;100.00
59073;BME280;44859;51.934;15.554;2023-02-13T01:16:44;101766.85;;;4.61;100.00
59073;BME280;44859;51.934;15.554;2023-02-13T01:22:12;101764.42;;;4.60;100.00
59073;BME280;44859;51.934;15.554;2023-02-13T01:24:41;101767.02;;;4.60;100.00
59073;BME280;44859;51.934;15.554;2023-02-13T01:27:11;101766.87;;;4.61;100.00
59073;BME280;44859;51.934;15.554;2023-02-13T01:29:50;101759.92;;;4.63;100.00
59073;BME280;44859;51.934;15.554;2023-02-13T01:32:33;101759.39;;;4.62;100.00
59073;BME280;44859;51.934;15.554;2023-02-13T01:35:08;101753.48;;;4.63;100.00
59073;BME280;44859;51.934;15.554;2023-02-13T01:37:44;101753.11;;;4.62;100.00
59073;BME280;44859;51.934;15.554;2023-02-13T01:40:29;101746.35;;;4.63;100.00
59073;BME280;44859;51.934;15.554;2023-02-13T01:43:18;101746.69;;;4.63;100.00
59073;BME280;44859;51.934;15.554;2023-02-13T01:46:06;101741.64;;;4.63;100.00
59073;BME280;44859;51.934;15.554;2023-02-13T01:48:45;101743.55;;;4.63;100.00
59073;BME280;44859;51.934;15.554;2023-02-13T01:51:44;101742.52;;;4.64;100.00
59073;BME280;44859;51.934;15.554;2023-02-13T01:54:52;101748.09;;;4.65;100.00
59073;BME280;44859;51.934;15.554;2023-02-13T01:57:23;101746.17;;;4.64;100.00
59073;BME280;44859;51.934;15.554;2023-02-13T02:00:16;101743.39;;;4.64;100.00
59073;BME280;44859;51.934;15.554;2023-02-13T02:03:10;101742.88;;;4.65;100.00
59073;BME280;44859;51.934;15.554;2023-02-13T02:06:02;101746.19;;;4.66;100.00
59073;BME280;44859;51.934;15.554;2023-02-13T02:12:21;101741.14;;;4.64;100.00
59073;BME280;44859;51.934;15.554;2023-02-13T02:15:05;101737.66;;;4.65;100.00
59073;BME280;44859;51.934;15.554;2023-02-13T02:18:15;101736.79;;;4.65;100.00
59073;BME280;44859;51.934;15.554;2023-02-13T02:21:25;101741.14;;;4.65;100.00
59073;BME280;44859;51.934;15.554;2023-02-13T02:24:24;101738.17;;;4.64;100.00
59073;BME280;44859;51.934;15.554;2023-02-13T02:33:54;101734.34;;;4.65;100.00
59073;BME280;44859;51.934;15.554;2023-02-13T02:37:20;101731.72;;;4.64;100.00
59073;BME280;44859;51.934;15.554;2023-02-13T02:50:07;101728.08;;;4.64;100.00
59073;BME280;44859;51.934;15.554;2023-02-13T02:59:09;101719.90;;;4.64;100.00
59073;BME280;44859;51.934;15.554;2023-02-13T03:02:18;101725.13;;;4.64;100.00
59073;BME280;44859;51.934;15.554;2023-02-13T03:05:25;101724.60;;;4.64;100.00
59073;BME280;44859;51.934;15.554;2023-02-13T03:08:27;101714.34;;;4.64;100.00
59073;BME280;44859;51.934;15.554;2023-02-13T03:11:20;101711.20;;;4.65;100.00
59073;BME280;44859;51.934;15.554;2023-02-13T03:14:25;101708.77;;;4.63;100.00
59073;BME280;44859;51.934;15.554;2023-02-13T03:17:01;101706.84;;;4.63;100.00
59073;BME280;44859;51.934;15.554;2023-02-13T03:39:43;101720.63;;;4.67;100.00
59073;BME280;44859;51.934;15.554;2023-02-13T03:45:42;101721.33;;;4.70;100.00
59073;BME280;44859;51.934;15.554;2023-02-13T03:48:28;101723.23;;;4.69;100.00
59073;BME280;44859;51.934;15.554;2023-02-13T03:51:43;101723.93;;;4.67;100.00
59073;BME280;44859;51.934;15.554;2023-02-13T03:54:32;101719.92;;;4.67;100.00
59073;BME280;44859;51.934;15.554;2023-02-13T03:57:31;101719.40;;;4.67;100.00
59073;BME280;44859;51.934;15.554;2023-02-13T04:00:34;101722.70;;;4.67;100.00
59073;BME280;44859;51.934;15.554;2023-02-13T04:03:28;101720.61;;;4.68;100.00
59073;BME280;44859;51.934;15.554;2023-02-13T04:06:32;101715.58;;;4.68;100.00
59073;BME280;44859;51.934;15.554;2023-02-13T04:09:13;101720.80;;;4.68;100.00
59073;BME280;44859;51.934;15.554;2023-02-13T04:11:57;101719.75;;;4.67;100.00
59073;BME280;44859;51.934;15.554;2023-02-13T04:17:29;101716.45;;;4.67;100.00
59073;BME280;44859;51.934;15.554;2023-02-13T04:20:05;101715.39;;;4.67;100.00
59073;BME280;44859;51.934;15.554;2023-02-13T04:22:46;101710.69;;;4.67;100.00
59073;BME280;44859;51.934;15.554;2023-02-13T04:25:26;101713.84;;;4.67;100.00
59073;BME280;44859;51.934;15.554;2023-02-13T04:28:33;101709.65;;;4.67;100.00
59073;BME280;44859;51.934;15.554;2023-02-13T04:31:25;101705.66;;;4.67;100.00
59073;BME280;44859;51.934;15.554;2023-02-13T04:33:55;101706.17;;;4.67;100.00
59073;BME280;44859;51.934;15.554;2023-02-13T04:36:34;101701.13;;;4.67;100.00
59073;BME280;44859;51.934;15.554;2023-02-13T04:39:11;101697.65;;;4.67;100.00
59073;BME280;44859;51.934;15.554;2023-02-13T04:41:49;101702.34;;;4.68;100.00
59073;BME280;44859;51.934;15.554;2023-02-13T04:45:10;101699.41;;;4.70;100.00
59073;BME280;44859;51.934;15.554;2023-02-13T04:48:00;101698.16;;;4.67;100.00
59073;BME280;44859;51.934;15.554;2023-02-13T04:50:30;101699.37;;;4.65;100.00
59073;BME280;44859;51.934;15.554;2023-02-13T04:53:18;101708.06;;;4.63;100.00
59073;BME280;44859;51.934;15.554;2023-02-13T04:55:49;101707.52;;;4.61;100.00
59073;BME280;44859;51.934;15.554;2023-02-13T04:58:22;101706.64;;;4.60;100.00
59073;BME280;44859;51.934;15.554;2023-02-13T05:01:17;101703.86;;;4.60;100.00
59073;BME280;44859;51.934;15.554;2023-02-13T05:10:30;101719.50;;;4.57;100.00
59073;BME280;44859;51.934;15.554;2023-02-13T05:13:10;101720.89;;;4.56;100.00
59073;BME280;44859;51.934;15.554;2023-02-13T05:15:49;101723.83;;;4.54;100.00
59073;BME280;44859;51.934;15.554;2023-02-13T05:18:37;101725.21;;;4.52;100.00
59073;BME280;44859;51.934;15.554;2023-02-13T05:21:50;101729.36;;;4.49;100.00
59073;BME280;44859;51.934;15.554;2023-02-13T05:24:45;101728.30;;;4.47;100.00
59073;BME280;44859;51.934;15.554;2023-02-13T05:27:36;101736.25;;;4.40;100.00
59073;BME280;44859;51.934;15.554;2023-02-13T05:31:03;101750.78;;;4.29;100.00
59073;BME280;44859;51.934;15.554;2023-02-13T05:33:41;101755.79;;;4.25;100.00
59073;BME280;44859;51.934;15.554;2023-02-13T05:36:25;101752.31;;;4.24;100.00
59073;BME280;44859;51.934;15.554;2023-02-13T05:39:09;101754.73;;;4.24;100.00
59073;BME280;44859;51.934;15.554;2023-02-13T05:41:43;101751.05;;;4.20;100.00
59073;BME280;44859;51.934;15.554;2023-02-13T05:44:21;101749.12;;;4.17;100.00
59073;BME280;44859;51.934;15.554;2023-02-13T05:46:57;101750.50;;;4.16;100.00
59073;BME280;44859;51.934;15.554;2023-02-13T05:50:10;101748.73;;;4.14;100.00
59073;BME280;44859;51.934;15.554;2023-02-13T05:52:57;101750.29;;;4.13;100.00
59073;BME280;44859;51.934;15.554;2023-02-13T05:55:34;101753.04;;;4.10;100.00
59073;BME280;44859;51.934;15.554;2023-02-13T05:58:05;101756.33;;;4.09;100.00
59073;BME280;44859;51.934;15.554;2023-02-13T06:00:47;101763.44;;;4.06;100.00
59073;BME280;44859;51.934;15.554;2023-02-13T06:03:44;101766.23;;;4.07;100.00
59073;BME280;44859;51.934;15.554;2023-02-13T06:06:39;101765.20;;;4.07;100.00
59073;BME280;44859;51.934;15.554;2023-02-13T06:09:40;101770.57;;;4.06;100.00
59073;BME280;44859;51.934;15.554;2023-02-13T06:15:45;101779.60;;;4.03;100.00
59073;BME280;44859;51.934;15.554;2023-02-13T06:21:24;101783.54;;;3.99;100.00
59073;BME280;44859;51.934;15.554;2023-02-13T06:24:03;101785.62;;;3.99;100.00
59073;BME280;44859;51.934;15.554;2023-02-13T06:26:55;101786.30;;;3.97;100.00
59073;BME280;44859;51.934;15.554;2023-02-13T06:29:42;101785.21;;;3.93;100.00
59073;BME280;44859;51.934;15.554;2023-02-13T06:32:48;101782.23;;;3.90;100.00
59073;BME280;44859;51.934;15.554;2023-02-13T06:35:23;101783.09;;;3.90;100.00
59073;BME280;44859;51.934;15.554;2023-02-13T06:37:55;101781.70;;;3.89;100.00
59073;BME280;44859;51.934;15.554;2023-02-13T06:40:38;101782.71;;;3.87;100.00
59073;BME280;44859;51.934;15.554;2023-02-13T06:43:10;101784.27;;;3.86;100.00
59073;BME280;44859;51.934;15.554;2023-02-13T06:45:46;101784.08;;;3.85;100.00
59073;BME280;44859;51.934;15.554;2023-02-13T06:48:18;101787.73;;;3.85;100.00
59073;BME280;44859;51.934;15.554;2023-02-13T06:50:55;101793.46;;;3.84;100.00
59073;BME280;44859;51.934;15.554;2023-02-13T06:53:42;101792.06;;;3.83;100.00
59073;BME280;44859;51.934;15.554;2023-02-13T06:56:13;101794.66;;;3.83;100.00
59073;BME280;44859;51.934;15.554;2023-02-13T06:58:58;101799.03;;;3.84;100.00
59073;BME280;44859;51.934;15.554;2023-02-13T07:01:38;101797.66;;;3.87;100.00
59073;BME280;44859;51.934;15.554;2023-02-13T07:04:09;101799.58;;;3.87;100.00
59073;BME280;44859;51.934;15.554;2023-02-13T07:06:47;101799.06;;;3.88;100.00
59073;BME280;44859;51.934;15.554;2023-02-13T07:09:23;101802.36;;;3.88;100.00
59073;BME280;44859;51.934;15.554;2023-02-13T07:11:56;101807.27;;;3.90;100.00
59073;BME280;44859;51.934;15.554;2023-02-13T07:14:25;101809.38;;;3.93;100.00
59073;BME280;44859;51.934;15.554;2023-02-13T07:17:20;101811.48;;;3.93;100.00
59073;BME280;44859;51.934;15.554;2023-02-13T07:20:30;101813.41;;;3.96;100.00
59073;BME280;44859;51.934;15.554;2023-02-13T07:23:10;101814.28;;;3.96;100.00
59073;BME280;44859;51.934;15.554;2023-02-13T07:25:41;101813.92;;;3.95;100.00
59073;BME280;44859;51.934;15.554;2023-02-13T07:28:10;101816.89;;;3.96;100.00
59073;BME280;44859;51.934;15.554;2023-02-13T07:30:46;101817.39;;;3.94;100.00
59073;BME280;44859;51.934;15.554;2023-02-13T07:33:15;101823.63;;;3.92;100.00
59073;BME280;44859;51.934;15.554;2023-02-13T07:35:49;101825.52;;;3.92;100.00
59073;BME280;44859;51.934;15.554;2023-02-13T07:38:18;101829.36;;;3.92;100.00
59073;BME280;44859;51.934;15.554;2023-02-13T07:40:49;101829.16;;;3.90;100.00
59073;BME280;44859;51.934;15.554;2023-02-13T07:43:18;101827.95;;;3.90;100.00
59073;BME280;44859;51.934;15.554;2023-02-13T07:45:53;101832.79;;;3.88;100.00
59073;BME280;44859;51.934;15.554;2023-02-13T07:48:25;101834.50;;;3.86;100.00
59073;BME280;44859;51.934;15.554;2023-02-13T07:51:01;101834.14;;;3.84;100.00
59073;BME280;44859;51.934;15.554;2023-02-13T07:53:32;101838.13;;;3.84;100.00
59073;BME280;44859;51.934;15.554;2023-02-13T07:56:05;101844.39;;;3.84;100.00
59073;BME280;44859;51.934;15.554;2023-02-13T07:58:36;101850.27;;;3.83;100.00
59073;BME280;44859;51.934;15.554;2023-02-13T08:01:14;101850.46;;;3.82;100.00
59073;BME280;44859;51.934;15.554;2023-02-13T08:03:47;101852.89;;;3.84;100.00
59073;BME280;44859;51.934;15.554;2023-02-13T08:06:20;101852.75;;;3.86;100.00
59073;BME280;44859;51.934;15.554;2023-02-13T08:09:06;101853.45;;;3.86;100.00
59073;BME280;44859;51.934;15.554;2023-02-13T08:11:59;101852.77;;;3.87;100.00
59073;BME280;44859;51.934;15.554;2023-02-13T08:14:35;101851.92;;;3.89;100.00
59073;BME280;44859;51.934;15.554;2023-02-13T08:17:08;101848.28;;;3.90;100.00
59073;BME280;44859;51.934;15.554;2023-02-13T08:19:39;101847.92;;;3.89;100.00
59073;BME280;44859;51.934;15.554;2023-02-13T08:22:10;101846.53;;;3.89;100.00
59073;BME280;44859;51.934;15.554;2023-02-13T08:24:44;101846.54;;;3.89;100.00
59073;BME280;44859;51.934;15.554;2023-02-13T08:27:15;101844.11;;;3.90;100.00
59073;BME280;44859;51.934;15.554;2023-02-13T08:29:55;101845.48;;;3.88;100.00
59073;BME280;44859;51.934;15.554;2023-02-13T08:32:30;101843.73;;;3.87;100.00
59073;BME280;44859;51.934;15.554;2023-02-13T08:35:19;101845.48;;;3.89;100.00
59073;BME280;44859;51.934;15.554;2023-02-13T08:37:53;101841.84;;;3.89;100.00
59073;BME280;44859;51.934;15.554;2023-02-13T08:40:28;101844.12;;;3.90;100.00
59073;BME280;44859;51.934;15.554;2023-02-13T08:43:02;101838.73;;;3.90;100.00
59073;BME280;44859;51.934;15.554;2023-02-13T08:45:40;101839.05;;;3.88;100.00
59073;BME280;44859;51.934;15.554;2023-02-13T08:48:29;101841.34;;;3.91;100.00
59073;BME280;44859;51.934;15.554;2023-02-13T08:51:03;101842.05;;;3.93;100.00
59073;BME280;44859;51.934;15.554;2023-02-13T08:53:38;101839.46;;;3.93;100.00
59073;BME280;44859;51.934;15.554;2023-02-13T08:56:08;101839.66;;;3.95;100.00
59073;BME280;44859;51.934;15.554;2023-02-13T08:58:40;101838.45;;;3.96;100.00
59073;BME280;44859;51.934;15.554;2023-02-13T09:01:16;101843.16;;;3.97;100.00
59073;BME280;44859;51.934;15.554;2023-02-13T09:03:48;101846.65;;;3.99;100.00
59073;BME280;44859;51.934;15.554;2023-02-13T09:06:26;101846.15;;;4.02;100.00
59073;BME280;44859;51.934;15.554;2023-02-13T09:09:00;101853.64;;;4.03;100.00
59073;BME280;44859;51.934;15.554;2023-02-13T09:11:40;101850.16;;;4.02;100.00
59073;BME280;44859;51.934;15.554;2023-02-13T09:14:18;101847.59;;;4.05;100.00
59073;BME280;44859;51.934;15.554;2023-02-13T09:16:49;101852.48;;;4.07;100.00
59073;BME280;44859;51.934;15.554;2023-02-13T09:19:32;101850.39;;;4.08;100.00
59073;BME280;44859;51.934;15.554;2023-02-13T09:22:02;101848.99;;;4.07;100.00
59073;BME280;44859;51.934;15.554;2023-02-13T09:25:14;101846.55;;;4.06;100.00
59073;BME280;44859;51.934;15.554;2023-02-13T09:28:13;101846.92;;;4.07;100.00
59073;BME280;44859;51.934;15.554;2023-02-13T09:31:05;101849.19;;;4.08;100.00
59073;BME280;44859;51.934;15.554;2023-02-13T09:33:51;101851.12;;;4.09;100.00
59073;BME280;44859;51.934;15.554;2023-02-13T09:36:25;101851.09;;;4.08;100.00
59073;BME280;44859;51.934;15.554;2023-02-13T09:39:00;101851.61;;;4.08;100.00
59073;BME280;44859;51.934;15.554;2023-02-13T09:41:38;101854.25;;;4.09;100.00
59073;BME280;44859;51.934;15.554;2023-02-13T09:49:51;101857.61;;;4.15;100.00
59073;BME280;44859;51.934;15.554;2023-02-13T09:52:35;101857.11;;;4.17;100.00
59073;BME280;44859;51.934;15.554;2023-02-13T09:58:32;101852.79;;;4.20;100.00
59073;BME280;44859;51.934;15.554;2023-02-13T10:07:38;101851.77;;;4.23;100.00
59073;BME280;44859;51.934;15.554;2023-02-13T10:13:21;101848.71;;;4.30;100.00
59073;BME280;44859;51.934;15.554;2023-02-13T10:16:08;101853.45;;;4.33;100.00
59073;BME280;44859;51.934;15.554;2023-02-13T10:21:33;101849.11;;;4.36;100.00
59073;BME280;44859;51.934;15.554;2023-02-13T10:24:15;101850.19;;;4.39;100.00
59073;BME280;44859;51.934;15.554;2023-02-13T10:26:51;101841.20;;;4.45;100.00
59073;BME280;44859;51.934;15.554;2023-02-13T10:29:41;101838.80;;;4.49;100.00
59073;BME280;44859;51.934;15.554;2023-02-13T10:35:30;101834.30;;;4.52;100.00
59073;BME280;44859;51.934;15.554;2023-02-13T10:38:11;101833.77;;;4.50;100.00
59073;BME280;44859;51.934;15.554;2023-02-13T10:41:22;101833.42;;;4.51;100.00
59073;BME280;44859;51.934;15.554;2023-02-13T10:44:14;101830.48;;;4.52;100.00
59073;BME280;44859;51.934;15.554;2023-02-13T10:47:10;101827.21;;;4.56;100.00
59073;BME280;44859;51.934;15.554;2023-02-13T11:03:31;101818.34;;;4.57;100.00
59073;BME280;44859;51.934;15.554;2023-02-13T11:06:07;101813.64;;;4.56;100.00
59073;BME280;44859;51.934;15.554;2023-02-13T11:08:42;101812.77;;;4.57;100.00
59073;BME280;44859;51.934;15.554;2023-02-13T11:11:36;101811.89;;;4.56;100.00
59073;BME280;44859;51.934;15.554;2023-02-13T11:16:54;101808.46;;;4.62;100.00
59073;BME280;44859;51.934;15.554;2023-02-13T11:22:08;101815.29;;;4.66;100.00
59073;BME280;44859;51.934;15.554;2023-02-13T11:24:50;101812.19;;;4.71;100.00
59073;BME280;44859;51.934;15.554;2023-02-13T11:27:32;101808.20;;;4.73;100.00
59073;BME280;44859;51.934;15.554;2023-02-13T11:33:05;101801.77;;;4.72;100.00
59073;BME280;44859;51.934;15.554;2023-02-13T11:35:38;101802.98;;;4.74;100.00
59073;BME280;44859;51.934;15.554;2023-02-13T11:38:23;101803.14;;;4.70;100.00
59073;BME280;44859;51.934;15.554;2023-02-13T11:43:43;101798.98;;;4.74;100.00
59073;BME280;44859;51.934;15.554;2023-02-13T11:46:19;101792.20;;;4.76;100.00
59073;BME280;44859;51.934;15.554;2023-02-13T11:51:45;101791.91;;;4.83;100.00
59073;BME280;44859;51.934;15.554;2023-02-13T11:54:40;101792.30;;;4.88;100.00
59073;BME280;44859;51.934;15.554;2023-02-13T11:57:34;101793.70;;;4.91;100.00
59073;BME280;44859;51.934;15.554;2023-02-13T12:00:31;101804.66;;;4.88;100.00
59073;BME280;44859;51.934;15.554;2023-02-13T12:03:26;101807.78;;;4.88;100.00
59073;BME280;44859;51.934;15.554;2023-02-13T12:08:55;101813.38;;;4.90;100.00
59073;BME280;44859;51.934;15.554;2023-02-13T12:11:47;101804.31;;;4.90;100.00
59073;BME280;44859;51.934;15.554;2023-02-13T12:14:23;101798.56;;;4.88;100.00
59073;BME280;44859;51.934;15.554;2023-02-13T12:17:07;101796.48;;;4.90;100.00
59073;BME280;44859;51.934;15.554;2023-02-13T12:19:59;101790.73;;;4.91;100.00
59073;BME280;44859;51.934;15.554;2023-02-13T12:25:44;101791.42;;;4.91;100.00
59073;BME280;44859;51.934;15.554;2023-02-13T12:28:37;101784.80;;;4.89;100.00
59073;BME280;44859;51.934;15.554;2023-02-13T12:31:31;101780.48;;;4.92;100.00
59073;BME280;44859;51.934;15.554;2023-02-13T12:40:07;101774.91;;;4.93;100.00
59073;BME280;44859;51.934;15.554;2023-02-13T12:45:40;101775.65;;;5.00;100.00
59073;BME280;44859;51.934;15.554;2023-02-13T12:49:04;101774.11;;;5.03;100.00
59073;BME280;44859;51.934;15.554;2023-02-13T12:58:14;101754.06;;;5.00;100.00
59073;BME280;44859;51.934;15.554;2023-02-13T13:04:18;101755.83;;;5.02;99.94
59073;BME280;44859;51.934;15.554;2023-02-13T13:10:10;101760.16;;;5.01;99.71
59073;BME280;44859;51.934;15.554;2023-02-13T13:13:01;101758.95;;;5.02;99.41
59073;BME280;44859;51.934;15.554;2023-02-13T13:15:54;101758.46;;;5.08;99.35
59073;BME280;44859;51.934;15.554;2023-02-13T13:19:10;101763.00;;;5.12;99.26
59073;BME280;44859;51.934;15.554;2023-02-13T13:22:06;101764.23;;;5.15;99.04
59073;BME280;44859;51.934;15.554;2023-02-13T13:25:02;101762.31;;;5.14;99.03
59073;BME280;44859;51.934;15.554;2023-02-13T13:27:43;101765.11;;;5.14;98.88
59073;BME280;44859;51.934;15.554;2023-02-13T13:30:20;101770.69;;;5.16;98.92
59073;BME280;44859;51.934;15.554;2023-02-13T13:33:15;101767.38;;;5.14;98.08
59073;BME280;44859;51.934;15.554;2023-02-13T13:36:42;101759.86;;;5.10;97.55
59073;BME280;44859;51.934;15.554;2023-02-13T13:42:16;101763.70;;;5.13;98.03
59073;BME280;44859;51.934;15.554;2023-02-13T13:45:04;101761.95;;;5.11;97.99
59073;BME280;44859;51.934;15.554;2023-02-13T13:51:06;101756.70;;;5.07;97.78
59073;BME280;44859;51.934;15.554;2023-02-13T14:02:46;101737.90;;;5.06;98.03
59073;BME280;44859;51.934;15.554;2023-02-13T14:05:22;101739.81;;;5.07;98.58
59073;BME280;44859;51.934;15.554;2023-02-13T14:08:07;101736.86;;;5.09;98.44
59073;BME280;44859;51.934;15.554;2023-02-13T14:11:10;101727.46;;;5.09;98.29
59073;BME280;44859;51.934;15.554;2023-02-13T14:13:56;101724.15;;;5.10;98.43
59073;BME280;44859;51.934;15.554;2023-02-13T14:16:44;101726.76;;;5.08;98.56
59073;BME280;44859;51.934;15.554;2023-02-13T14:22:31;101707.59;;;5.05;98.43
59073;BME280;44859;51.934;15.554;2023-02-13T14:25:27;101704.27;;;5.03;99.06
59073;BME280;44859;51.934;15.554;2023-02-13T14:27:59;101700.11;;;5.07;99.10
59073;BME280;44859;51.934;15.554;2023-02-13T14:30:40;101700.27;;;5.05;99.23
59073;BME280;44859;51.934;15.554;2023-02-13T14:33:23;101694.33;;;4.99;99.33
59073;BME280;44859;51.934;15.554;2023-02-13T14:36:20;101692.92;;;4.97;99.78
59073;BME280;44859;51.934;15.554;2023-02-13T14:39:06;101696.76;;;4.98;99.87
59073;BME280;44859;51.934;15.554;2023-02-13T14:41:58;101706.00;;;5.00;99.97
59073;BME280;44859;51.934;15.554;2023-02-13T14:44:43;101703.75;;;5.02;99.97
59073;BME280;44859;51.934;15.554;2023-02-13T14:47:43;101702.67;;;4.98;100.00
59073;BME280;44859;51.934;15.554;2023-02-13T14:50:38;101693.94;;;4.92;100.00
59073;BME280;44859;51.934;15.554;2023-02-13T14:53:21;101686.59;;;4.84;100.00
59073;BME280;44859;51.934;15.554;2023-02-13T14:55:58;101676.11;;;4.79;100.00
59073;BME280;44859;51.934;15.554;2023-02-13T14:58:46;101672.29;;;4.78;100.00
59073;BME280;44859;51.934;15.554;2023-02-13T15:01:49;101668.45;;;4.77;100.00
59073;BME280;44859;51.934;15.554;2023-02-13T15:04:37;101668.27;;;4.75;100.00
59073;BME280;44859;51.934;15.554;2023-02-13T15:07:16;101674.35;;;4.75;100.00
59073;BME280;44859;51.934;15.554;2023-02-13T15:09:59;101673.66;;;4.74;100.00
59073;BME280;44859;51.934;15.554;2023-02-13T15:12:35;101671.05;;;4.73;100.00
59073;BME280;44859;51.934;15.554;2023-02-13T15:15:32;101686.54;;;4.74;100.00
59073;BME280;44859;51.934;15.554;2023-02-13T15:18:06;101683.92;;;4.73;100.00
59073;BME280;44859;51.934;15.554;2023-02-13T15:20:42;101683.21;;;4.72;100.00
59073;BME280;44859;51.934;15.554;2023-02-13T15:23:22;101682.89;;;4.73;100.00
59073;BME280;44859;51.934;15.554;2023-02-13T15:26:15;101670.88;;;4.73;100.00
59073;BME280;44859;51.934;15.554;2023-02-13T15:29:19;101665.28;;;4.69;100.00
59073;BME280;44859;51.934;15.554;2023-02-13T15:32:19;101659.70;;;4.67;100.00
59073;BME280;44859;51.934;15.554;2023-02-13T15:34:49;101648.73;;;4.65;100.00
59073;BME280;44859;51.934;15.554;2023-02-13T15:37:25;101646.98;;;4.64;100.00
59073;BME280;44859;51.934;15.554;2023-02-13T15:40:12;101648.00;;;4.61;100.00
59073;BME280;44859;51.934;15.554;2023-02-13T15:42:47;101654.96;;;4.61;100.00
59073;BME280;44859;51.934;15.554;2023-02-13T15:45:17;101662.11;;;4.61;100.00
59073;BME280;44859;51.934;15.554;2023-02-13T15:47:46;101665.07;;;4.61;100.00
59073;BME280;44859;51.934;15.554;2023-02-13T15:50:33;101658.79;;;4.60;100.00
59073;BME280;44859;51.934;15.554;2023-02-13T15:53:04;101651.48;;;4.58;100.00
59073;BME280;44859;51.934;15.554;2023-02-13T15:55:41;101654.78;;;4.58;100.00
59073;BME280;44859;51.934;15.554;2023-02-13T15:58:32;101660.16;;;4.57;100.00
59073;BME280;44859;51.934;15.554;2023-02-13T16:01:06;101660.51;;;4.56;100.00
59073;BME280;44859;51.934;15.554;2023-02-13T16:03:39;101650.75;;;4.54;100.00
59073;BME280;44859;51.934;15.554;2023-02-13T16:06:30;101652.48;;;4.52;100.00
59073;BME280;44859;51.934;15.554;2023-02-13T16:09:03;101656.66;;;4.52;100.00
59073;BME280;44859;51.934;15.554;2023-02-13T16:11:37;101658.92;;;4.52;100.00
59073;BME280;44859;51.934;15.554;2023-02-13T16:14:26;101664.15;;;4.54;100.00
59073;BME280;44859;51.934;15.554;2023-02-13T16:17:04;101677.20;;;4.54;100.00
59073;BME280;44859;51.934;15.554;2023-02-13T16:23:20;101671.43;;;4.50;100.00
59073;BME280;44859;51.934;15.554;2023-02-13T16:25:45;101666.38;;;4.49;100.00
59073;BME280;44859;51.934;15.554;2023-02-13T16:28:22;101664.11;;;4.49;100.00
59073;BME280;44859;51.934;15.554;2023-02-13T16:31:00;101659.78;;;4.49;100.00
59073;BME280;44859;51.934;15.554;2023-02-13T16:33:44;101667.25;;;4.49;100.00
59073;BME280;44859;51.934;15.554;2023-02-13T16:36:28;101663.59;;;4.48;100.00
59073;BME280;44859;51.934;15.554;2023-02-13T16:39:17;101664.46;;;4.49;100.00
59073;BME280;44859;51.934;15.554;2023-02-13T16:42:18;101671.43;;;4.50;100.00
59073;BME280;44859;51.934;15.554;2023-02-13T16:44:48;101663.44;;;4.51;100.00
59073;BME280;44859;51.934;15.554;2023-02-13T16:47:22;101662.39;;;4.49;100.00
59073;BME280;44859;51.934;15.554;2023-02-13T16:49:55;101667.06;;;4.48;100.00
59073;BME280;44859;51.934;15.554;2023-02-13T16:52:32;101670.54;;;4.47;100.00